This is the latest recevied weather packets stored in our database for station/object KE8WMS. If no packets are shown the sender has not sent any weather packets the latest 1 day(s).
| Time | Temp. | Humidity | Pressure | Rain* | Wind** | Luminosity | Snow |
|---|---|---|---|---|---|---|---|
| 1778008865 | 14.44° C | 93% | 1003.8 hPa | 1.27 mm | 0.45 m/s, 231° | 77 W/m² | - |
| 1778008564 | 14.44° C | 92% | 1003.8 hPa | 3.05 mm | 0 m/s | 65 W/m² | - |
| 1778008261 | 14.44° C | 91% | 1003.6 hPa | 3.05 mm | 0 m/s | 76 W/m² | - |
| 1778007956 | 14.44° C | 90% | 1003.6 hPa | 3.05 mm | 0 m/s | 58 W/m² | - |
| 1778007652 | 15° C | 88% | 1003.8 hPa | 1.78 mm | 0 m/s | 64 W/m² | - |
| 1778007349 | 15° C | 86% | 1003.7 hPa | 0 mm | 0.45 m/s, 228° | 78 W/m² | - |
| 1778007045 | 15.56° C | 83% | 1003.6 hPa | 0 mm | 0.45 m/s, 274° | 32 W/m² | - |
| 1778006742 | 16.11° C | 81% | 1003.8 hPa | 0 mm | 0.89 m/s, 164° | 39 W/m² | - |
| 1778006439 | 16.67° C | 79% | 1003.6 hPa | 0 mm | 0.89 m/s, 247° | 56 W/m² | - |
| 1778006135 | 16.67° C | 77% | 1003.5 hPa | 0 mm | 1.34 m/s, 157° | 50 W/m² | - |
| 1778005833 | 17.22° C | 76% | 1003.5 hPa | 0 mm | 0.45 m/s, 185° | 63 W/m² | - |
| 1778005529 | 17.22° C | 75% | 1003.6 hPa | 0 mm | 1.79 m/s, 227° | 55 W/m² | - |
| 1778005226 | 17.22° C | 75% | 1003.8 hPa | 0 mm | 2.24 m/s, 227° | 58 W/m² | - |
| 1778004922 | 17.78° C | 75% | 1003.7 hPa | 0 mm | 0.89 m/s, 243° | 66 W/m² | - |
| 1778004620 | 17.78° C | 74% | 1003.6 hPa | 0 mm | 0 m/s | 91 W/m² | - |
| 1778004315 | 17.78° C | 74% | 1003.9 hPa | 0 mm | 1.34 m/s, 217° | 91 W/m² | - |
| 1778004020 | 18.33° C | 73% | 1003.7 hPa | 0 mm | 0.45 m/s, 152° | 90 W/m² | - |
| 1778003708 | 18.33° C | 73% | 1003.8 hPa | 0 mm | 1.79 m/s, 167° | 146 W/m² | - |
| 1778003406 | 17.78° C | 74% | 1003.7 hPa | 0 mm | 1.34 m/s, 251° | 250 W/m² | - |
| 1778003103 | 17.78° C | 74% | 1003.4 hPa | 0 mm | 0.45 m/s, 222° | 187 W/m² | - |
| 1778002799 | 17.78° C | 72% | 1003.5 hPa | 0 mm | 0.89 m/s, 220° | 144 W/m² | - |
| 1778002495 | 17.78° C | 73% | 1003.6 hPa | 0 mm | 1.34 m/s, 166° | 221 W/m² | - |
| 1778002193 | 17.78° C | 74% | 1003.5 hPa | 0 mm | 0.45 m/s, 195° | 119 W/m² | - |
| 1778001891 | 17.78° C | 74% | 1003.6 hPa | 0 mm | 1.34 m/s, 236° | 69 W/m² | - |
| 1778001590 | 17.78° C | 73% | 1003.6 hPa | 0 mm | 0.45 m/s, 230° | 78 W/m² | - |
* Rain latest hour (hover to see other rain measurements)
** Current wind speed in m/s (hover to see current wind gust speed)